sensor_id;sensor_type;location;lat;lon;timestamp;P1;durP1;ratioP1;P2;durP2;ratioP2
76259;SDS011;65076;52.362;6.588;2022-11-15T00:01:17;16.45;;;8.07;;
76259;SDS011;65076;52.362;6.588;2022-11-15T00:03:46;15.50;;;8.77;;
76259;SDS011;65076;52.362;6.588;2022-11-15T00:06:18;15.13;;;8.98;;
76259;SDS011;65076;52.362;6.588;2022-11-15T00:08:46;15.13;;;8.38;;
76259;SDS011;65076;52.362;6.588;2022-11-15T00:11:15;13.52;;;7.57;;
76259;SDS011;65076;52.362;6.588;2022-11-15T00:13:43;18.23;;;9.48;;
76259;SDS011;65076;52.362;6.588;2022-11-15T00:16:10;15.93;;;8.73;;
76259;SDS011;65076;52.362;6.588;2022-11-15T00:18:38;16.38;;;9.38;;
76259;SDS011;65076;52.362;6.588;2022-11-15T00:21:12;17.85;;;9.13;;
76259;SDS011;65076;52.362;6.588;2022-11-15T00:23:41;14.93;;;8.73;;
76259;SDS011;65076;52.362;6.588;2022-11-15T00:26:10;16.90;;;9.35;;
76259;SDS011;65076;52.362;6.588;2022-11-15T00:28:42;18.10;;;9.70;;
76259;SDS011;65076;52.362;6.588;2022-11-15T00:31:11;13.70;;;8.10;;
76259;SDS011;65076;52.362;6.588;2022-11-15T00:33:42;20.25;;;9.75;;
76259;SDS011;65076;52.362;6.588;2022-11-15T00:38:39;17.13;;;9.10;;
76259;SDS011;65076;52.362;6.588;2022-11-15T00:41:08;15.90;;;8.75;;
76259;SDS011;65076;52.362;6.588;2022-11-15T00:43:36;17.35;;;8.45;;
76259;SDS011;65076;52.362;6.588;2022-11-15T00:46:07;15.07;;;8.10;;
76259;SDS011;65076;52.362;6.588;2022-11-15T00:48:35;14.73;;;9.13;;
76259;SDS011;65076;52.362;6.588;2022-11-15T00:51:04;18.50;;;9.07;;
76259;SDS011;65076;52.362;6.588;2022-11-15T00:53:32;16.60;;;9.13;;
76259;SDS011;65076;52.362;6.588;2022-11-15T00:56:00;21.13;;;10.25;;
76259;SDS011;65076;52.362;6.588;2022-11-15T00:58:28;17.80;;;9.23;;
76259;SDS011;65076;52.362;6.588;2022-11-15T01:00:55;16.38;;;9.45;;
76259;SDS011;65076;52.362;6.588;2022-11-15T01:03:25;18.30;;;9.70;;
76259;SDS011;65076;52.362;6.588;2022-11-15T01:05:53;17.95;;;9.50;;
76259;SDS011;65076;52.362;6.588;2022-11-15T01:08:21;17.58;;;8.95;;
76259;SDS011;65076;52.362;6.588;2022-11-15T01:10:51;17.27;;;8.85;;
76259;SDS011;65076;52.362;6.588;2022-11-15T01:13:19;19.40;;;10.00;;
76259;SDS011;65076;52.362;6.588;2022-11-15T01:15:46;16.08;;;8.63;;
76259;SDS011;65076;52.362;6.588;2022-11-15T01:18:14;19.02;;;9.65;;
76259;SDS011;65076;52.362;6.588;2022-11-15T01:20:43;18.42;;;9.27;;
76259;SDS011;65076;52.362;6.588;2022-11-15T01:23:11;19.05;;;9.23;;
76259;SDS011;65076;52.362;6.588;2022-11-15T01:25:39;20.48;;;9.43;;
76259;SDS011;65076;52.362;6.588;2022-11-15T01:28:07;18.67;;;9.20;;
76259;SDS011;65076;52.362;6.588;2022-11-15T01:30:35;20.60;;;8.93;;
76259;SDS011;65076;52.362;6.588;2022-11-15T01:33:03;20.38;;;9.65;;
76259;SDS011;65076;52.362;6.588;2022-11-15T01:35:31;18.45;;;10.00;;
76259;SDS011;65076;52.362;6.588;2022-11-15T01:38:00;18.30;;;10.05;;
76259;SDS011;65076;52.362;6.588;2022-11-15T01:40:28;19.85;;;10.80;;
76259;SDS011;65076;52.362;6.588;2022-11-15T01:42:56;17.95;;;9.18;;
76259;SDS011;65076;52.362;6.588;2022-11-15T01:45:24;19.60;;;9.57;;
76259;SDS011;65076;52.362;6.588;2022-11-15T01:47:53;18.90;;;9.85;;
76259;SDS011;65076;52.362;6.588;2022-11-15T01:50:23;18.35;;;9.27;;
76259;SDS011;65076;52.362;6.588;2022-11-15T01:52:56;20.17;;;9.85;;
76259;SDS011;65076;52.362;6.588;2022-11-15T01:55:25;21.38;;;9.80;;
76259;SDS011;65076;52.362;6.588;2022-11-15T01:57:56;20.83;;;10.10;;
76259;SDS011;65076;52.362;6.588;2022-11-15T02:00:28;19.60;;;9.52;;
76259;SDS011;65076;52.362;6.588;2022-11-15T02:02:57;22.33;;;10.20;;
76259;SDS011;65076;52.362;6.588;2022-11-15T02:05:25;30.02;;;10.93;;
76259;SDS011;65076;52.362;6.588;2022-11-15T02:07:54;19.25;;;10.15;;
76259;SDS011;65076;52.362;6.588;2022-11-15T02:10:22;19.98;;;10.32;;
76259;SDS011;65076;52.362;6.588;2022-11-15T02:12:53;18.60;;;10.18;;
76259;SDS011;65076;52.362;6.588;2022-11-15T02:15:24;18.02;;;9.32;;
76259;SDS011;65076;52.362;6.588;2022-11-15T02:18:06;20.65;;;11.93;;
76259;SDS011;65076;52.362;6.588;2022-11-15T02:20:52;18.88;;;11.18;;
76259;SDS011;65076;52.362;6.588;2022-11-15T02:27:01;20.30;;;9.75;;
76259;SDS011;65076;52.362;6.588;2022-11-15T02:30:00;20.13;;;10.68;;
76259;SDS011;65076;52.362;6.588;2022-11-15T02:32:58;17.75;;;10.20;;
76259;SDS011;65076;52.362;6.588;2022-11-15T02:35:35;24.92;;;11.07;;
76259;SDS011;65076;52.362;6.588;2022-11-15T02:38:16;21.20;;;11.07;;
76259;SDS011;65076;52.362;6.588;2022-11-15T02:40:56;18.55;;;10.40;;
76259;SDS011;65076;52.362;6.588;2022-11-15T02:43:31;21.85;;;10.95;;
76259;SDS011;65076;52.362;6.588;2022-11-15T02:46:26;24.50;;;11.32;;
76259;SDS011;65076;52.362;6.588;2022-11-15T02:49:21;24.38;;;10.43;;
76259;SDS011;65076;52.362;6.588;2022-11-15T02:51:51;20.08;;;11.38;;
76259;SDS011;65076;52.362;6.588;2022-11-15T02:54:22;22.42;;;11.63;;
76259;SDS011;65076;52.362;6.588;2022-11-15T02:56:54;25.17;;;11.55;;
76259;SDS011;65076;52.362;6.588;2022-11-15T02:59:34;21.65;;;11.60;;
76259;SDS011;65076;52.362;6.588;2022-11-15T03:02:29;23.35;;;11.50;;
76259;SDS011;65076;52.362;6.588;2022-11-15T03:05:17;21.17;;;11.32;;
76259;SDS011;65076;52.362;6.588;2022-11-15T03:07:59;19.85;;;10.55;;
76259;SDS011;65076;52.362;6.588;2022-11-15T03:10:40;20.42;;;11.43;;
76259;SDS011;65076;52.362;6.588;2022-11-15T03:13:21;20.75;;;11.02;;
76259;SDS011;65076;52.362;6.588;2022-11-15T03:15:57;21.13;;;11.35;;
76259;SDS011;65076;52.362;6.588;2022-11-15T03:18:32;26.27;;;10.77;;
76259;SDS011;65076;52.362;6.588;2022-11-15T03:21:06;31.02;;;12.65;;
76259;SDS011;65076;52.362;6.588;2022-11-15T03:23:38;22.00;;;12.20;;
76259;SDS011;65076;52.362;6.588;2022-11-15T03:26:08;21.63;;;10.50;;
76259;SDS011;65076;52.362;6.588;2022-11-15T03:28:42;21.70;;;10.70;;
76259;SDS011;65076;52.362;6.588;2022-11-15T03:31:17;21.33;;;11.65;;
76259;SDS011;65076;52.362;6.588;2022-11-15T03:34:19;24.45;;;10.52;;
76259;SDS011;65076;52.362;6.588;2022-11-15T03:36:56;19.50;;;9.93;;
76259;SDS011;65076;52.362;6.588;2022-11-15T03:39:24;18.58;;;10.75;;
76259;SDS011;65076;52.362;6.588;2022-11-15T03:41:56;21.60;;;10.45;;
76259;SDS011;65076;52.362;6.588;2022-11-15T03:44:40;20.60;;;9.85;;
76259;SDS011;65076;52.362;6.588;2022-11-15T03:47:18;20.73;;;10.88;;
76259;SDS011;65076;52.362;6.588;2022-11-15T03:49:55;16.58;;;9.48;;
76259;SDS011;65076;52.362;6.588;2022-11-15T03:52:30;20.83;;;9.70;;
76259;SDS011;65076;52.362;6.588;2022-11-15T03:55:02;19.88;;;10.48;;
76259;SDS011;65076;52.362;6.588;2022-11-15T03:57:33;18.27;;;9.88;;
76259;SDS011;65076;52.362;6.588;2022-11-15T04:00:01;19.20;;;9.88;;
76259;SDS011;65076;52.362;6.588;2022-11-15T04:02:31;19.27;;;10.07;;
76259;SDS011;65076;52.362;6.588;2022-11-15T04:04:58;16.85;;;9.80;;
76259;SDS011;65076;52.362;6.588;2022-11-15T04:07:26;18.45;;;9.50;;
76259;SDS011;65076;52.362;6.588;2022-11-15T04:09:56;16.10;;;9.77;;
76259;SDS011;65076;52.362;6.588;2022-11-15T04:12:29;17.15;;;9.73;;
76259;SDS011;65076;52.362;6.588;2022-11-15T04:14:59;16.80;;;9.23;;
76259;SDS011;65076;52.362;6.588;2022-11-15T04:17:35;16.33;;;9.20;;
76259;SDS011;65076;52.362;6.588;2022-11-15T04:20:07;17.30;;;9.60;;
76259;SDS011;65076;52.362;6.588;2022-11-15T04:22:56;17.27;;;9.77;;
76259;SDS011;65076;52.362;6.588;2022-11-15T04:25:44;14.40;;;9.23;;
76259;SDS011;65076;52.362;6.588;2022-11-15T04:28:14;18.35;;;9.23;;
76259;SDS011;65076;52.362;6.588;2022-11-15T04:30:41;16.83;;;9.50;;
76259;SDS011;65076;52.362;6.588;2022-11-15T04:33:09;16.38;;;9.00;;
76259;SDS011;65076;52.362;6.588;2022-11-15T04:35:37;17.23;;;9.30;;
76259;SDS011;65076;52.362;6.588;2022-11-15T04:38:06;17.73;;;8.80;;
76259;SDS011;65076;52.362;6.588;2022-11-15T04:40:35;19.52;;;9.80;;
76259;SDS011;65076;52.362;6.588;2022-11-15T04:43:05;15.95;;;9.20;;
76259;SDS011;65076;52.362;6.588;2022-11-15T04:45:33;15.77;;;8.57;;
76259;SDS011;65076;52.362;6.588;2022-11-15T04:48:01;18.65;;;10.07;;
76259;SDS011;65076;52.362;6.588;2022-11-15T04:50:28;16.85;;;9.73;;
76259;SDS011;65076;52.362;6.588;2022-11-15T04:52:56;18.70;;;10.73;;
76259;SDS011;65076;52.362;6.588;2022-11-15T04:55:24;15.30;;;8.80;;
76259;SDS011;65076;52.362;6.588;2022-11-15T04:57:58;17.35;;;10.00;;
76259;SDS011;65076;52.362;6.588;2022-11-15T05:00:29;17.73;;;10.35;;
76259;SDS011;65076;52.362;6.588;2022-11-15T05:02:57;19.02;;;10.00;;
76259;SDS011;65076;52.362;6.588;2022-11-15T05:05:54;16.80;;;9.68;;
76259;SDS011;65076;52.362;6.588;2022-11-15T05:08:21;17.13;;;10.27;;
76259;SDS011;65076;52.362;6.588;2022-11-15T05:10:49;13.50;;;9.15;;
76259;SDS011;65076;52.362;6.588;2022-11-15T05:13:17;16.75;;;9.80;;
76259;SDS011;65076;52.362;6.588;2022-11-15T05:15:46;14.60;;;9.30;;
76259;SDS011;65076;52.362;6.588;2022-11-15T05:18:14;13.70;;;8.02;;
76259;SDS011;65076;52.362;6.588;2022-11-15T05:20:48;15.98;;;9.27;;
76259;SDS011;65076;52.362;6.588;2022-11-15T05:23:16;15.57;;;8.60;;
76259;SDS011;65076;52.362;6.588;2022-11-15T05:25:44;17.05;;;9.13;;
76259;SDS011;65076;52.362;6.588;2022-11-15T05:28:12;13.50;;;8.40;;
76259;SDS011;65076;52.362;6.588;2022-11-15T05:30:40;14.60;;;8.93;;
76259;SDS011;65076;52.362;6.588;2022-11-15T05:33:09;17.40;;;9.73;;
76259;SDS011;65076;52.362;6.588;2022-11-15T05:35:38;15.60;;;8.63;;
76259;SDS011;65076;52.362;6.588;2022-11-15T05:38:16;16.23;;;9.18;;
76259;SDS011;65076;52.362;6.588;2022-11-15T05:40:44;16.23;;;9.00;;
76259;SDS011;65076;52.362;6.588;2022-11-15T05:43:12;14.07;;;9.40;;
76259;SDS011;65076;52.362;6.588;2022-11-15T05:45:41;16.55;;;8.75;;
76259;SDS011;65076;52.362;6.588;2022-11-15T05:48:10;14.80;;;8.15;;
76259;SDS011;65076;52.362;6.588;2022-11-15T05:53:13;19.75;;;10.18;;
76259;SDS011;65076;52.362;6.588;2022-11-15T05:55:48;13.98;;;9.40;;
76259;SDS011;65076;52.362;6.588;2022-11-15T05:58:16;16.27;;;9.15;;
76259;SDS011;65076;52.362;6.588;2022-11-15T06:00:45;16.23;;;8.82;;
76259;SDS011;65076;52.362;6.588;2022-11-15T06:03:15;14.30;;;8.43;;
76259;SDS011;65076;52.362;6.588;2022-11-15T06:05:42;15.55;;;8.50;;
76259;SDS011;65076;52.362;6.588;2022-11-15T06:08:10;14.38;;;9.23;;
76259;SDS011;65076;52.362;6.588;2022-11-15T06:10:38;12.40;;;7.32;;
76259;SDS011;65076;52.362;6.588;2022-11-15T06:13:06;16.05;;;9.23;;
76259;SDS011;65076;52.362;6.588;2022-11-15T06:15:34;14.90;;;8.10;;
76259;SDS011;65076;52.362;6.588;2022-11-15T06:18:02;12.65;;;8.48;;
76259;SDS011;65076;52.362;6.588;2022-11-15T06:20:31;14.55;;;8.95;;
76259;SDS011;65076;52.362;6.588;2022-11-15T06:22:59;16.45;;;9.02;;
76259;SDS011;65076;52.362;6.588;2022-11-15T06:27:58;13.43;;;8.45;;
76259;SDS011;65076;52.362;6.588;2022-11-15T06:30:26;16.67;;;8.32;;
76259;SDS011;65076;52.362;6.588;2022-11-15T06:33:00;14.38;;;8.45;;
76259;SDS011;65076;52.362;6.588;2022-11-15T06:35:32;11.82;;;7.68;;
76259;SDS011;65076;52.362;6.588;2022-11-15T06:38:02;12.65;;;7.68;;
76259;SDS011;65076;52.362;6.588;2022-11-15T06:40:33;12.07;;;7.70;;
76259;SDS011;65076;52.362;6.588;2022-11-15T06:43:02;13.85;;;8.45;;
76259;SDS011;65076;52.362;6.588;2022-11-15T06:45:31;13.40;;;8.63;;
76259;SDS011;65076;52.362;6.588;2022-11-15T06:47:59;14.73;;;8.93;;
76259;SDS011;65076;52.362;6.588;2022-11-15T06:50:27;15.70;;;9.50;;
76259;SDS011;65076;52.362;6.588;2022-11-15T06:52:58;12.55;;;7.90;;
76259;SDS011;65076;52.362;6.588;2022-11-15T06:55:29;13.73;;;8.90;;
76259;SDS011;65076;52.362;6.588;2022-11-15T06:57:57;13.13;;;8.77;;
76259;SDS011;65076;52.362;6.588;2022-11-15T07:00:24;12.43;;;8.43;;
76259;SDS011;65076;52.362;6.588;2022-11-15T07:02:52;12.90;;;8.73;;
76259;SDS011;65076;52.362;6.588;2022-11-15T07:05:20;12.68;;;7.88;;
76259;SDS011;65076;52.362;6.588;2022-11-15T07:07:51;18.20;;;9.45;;
76259;SDS011;65076;52.362;6.588;2022-11-15T07:10:21;13.30;;;8.38;;
76259;SDS011;65076;52.362;6.588;2022-11-15T07:12:51;13.80;;;8.43;;
76259;SDS011;65076;52.362;6.588;2022-11-15T07:15:21;16.10;;;9.02;;
76259;SDS011;65076;52.362;6.588;2022-11-15T07:17:51;13.50;;;8.65;;
76259;SDS011;65076;52.362;6.588;2022-11-15T07:20:19;13.93;;;8.82;;
76259;SDS011;65076;52.362;6.588;2022-11-15T07:22:47;13.88;;;9.13;;
76259;SDS011;65076;52.362;6.588;2022-11-15T07:25:15;12.32;;;8.45;;
76259;SDS011;65076;52.362;6.588;2022-11-15T07:27:45;13.45;;;8.98;;
76259;SDS011;65076;52.362;6.588;2022-11-15T07:30:22;13.43;;;8.43;;
76259;SDS011;65076;52.362;6.588;2022-11-15T07:32:52;11.38;;;8.38;;
76259;SDS011;65076;52.362;6.588;2022-11-15T07:37:55;11.52;;;7.90;;
76259;SDS011;65076;52.362;6.588;2022-11-15T07:40:24;13.20;;;8.02;;
76259;SDS011;65076;52.362;6.588;2022-11-15T07:42:59;11.82;;;7.32;;
76259;SDS011;65076;52.362;6.588;2022-11-15T07:45:27;13.48;;;7.85;;
76259;SDS011;65076;52.362;6.588;2022-11-15T07:47:56;12.32;;;7.82;;
76259;SDS011;65076;52.362;6.588;2022-11-15T07:50:24;13.85;;;8.07;;
76259;SDS011;65076;52.362;6.588;2022-11-15T07:52:53;11.20;;;7.30;;
76259;SDS011;65076;52.362;6.588;2022-11-15T07:55:22;10.35;;;7.00;;
76259;SDS011;65076;52.362;6.588;2022-11-15T07:57:50;10.40;;;6.93;;
76259;SDS011;65076;52.362;6.588;2022-11-15T08:00:20;10.68;;;6.82;;
76259;SDS011;65076;52.362;6.588;2022-11-15T08:02:48;9.65;;;6.93;;
76259;SDS011;65076;52.362;6.588;2022-11-15T08:05:16;9.32;;;6.70;;
76259;SDS011;65076;52.362;6.588;2022-11-15T08:07:43;11.20;;;7.57;;
76259;SDS011;65076;52.362;6.588;2022-11-15T08:10:19;10.73;;;6.75;;
76259;SDS011;65076;52.362;6.588;2022-11-15T08:12:47;10.85;;;7.40;;
76259;SDS011;65076;52.362;6.588;2022-11-15T08:15:15;12.98;;;8.40;;
76259;SDS011;65076;52.362;6.588;2022-11-15T08:17:44;12.45;;;8.05;;
76259;SDS011;65076;52.362;6.588;2022-11-15T08:20:14;13.85;;;8.15;;
76259;SDS011;65076;52.362;6.588;2022-11-15T08:22:42;13.68;;;7.93;;
76259;SDS011;65076;52.362;6.588;2022-11-15T08:25:09;12.25;;;7.93;;
76259;SDS011;65076;52.362;6.588;2022-11-15T08:27:37;12.95;;;8.45;;
76259;SDS011;65076;52.362;6.588;2022-11-15T08:30:06;12.75;;;8.82;;
76259;SDS011;65076;52.362;6.588;2022-11-15T08:32:34;12.00;;;7.82;;
76259;SDS011;65076;52.362;6.588;2022-11-15T08:35:05;13.85;;;8.63;;
76259;SDS011;65076;52.362;6.588;2022-11-15T08:37:34;12.52;;;9.00;;
76259;SDS011;65076;52.362;6.588;2022-11-15T08:40:02;16.00;;;9.00;;
76259;SDS011;65076;52.362;6.588;2022-11-15T08:42:31;14.20;;;8.77;;
76259;SDS011;65076;52.362;6.588;2022-11-15T08:44:59;14.20;;;9.20;;
76259;SDS011;65076;52.362;6.588;2022-11-15T08:47:30;14.93;;;9.85;;
76259;SDS011;65076;52.362;6.588;2022-11-15T08:49:57;15.80;;;9.63;;
76259;SDS011;65076;52.362;6.588;2022-11-15T08:52:27;12.15;;;8.35;;
76259;SDS011;65076;52.362;6.588;2022-11-15T08:54:55;13.80;;;8.48;;
76259;SDS011;65076;52.362;6.588;2022-11-15T08:57:23;13.40;;;8.88;;
76259;SDS011;65076;52.362;6.588;2022-11-15T08:59:51;14.15;;;9.35;;
76259;SDS011;65076;52.362;6.588;2022-11-15T09:02:19;12.30;;;8.60;;
76259;SDS011;65076;52.362;6.588;2022-11-15T09:04:47;16.52;;;10.60;;
76259;SDS011;65076;52.362;6.588;2022-11-15T09:07:15;16.30;;;9.93;;
76259;SDS011;65076;52.362;6.588;2022-11-15T09:09:47;17.75;;;10.98;;
76259;SDS011;65076;52.362;6.588;2022-11-15T09:12:15;19.30;;;11.18;;
76259;SDS011;65076;52.362;6.588;2022-11-15T09:14:43;19.40;;;12.50;;
76259;SDS011;65076;52.362;6.588;2022-11-15T09:17:11;17.60;;;10.82;;
76259;SDS011;65076;52.362;6.588;2022-11-15T09:19:39;17.88;;;10.18;;
76259;SDS011;65076;52.362;6.588;2022-11-15T09:22:07;14.98;;;9.20;;
76259;SDS011;65076;52.362;6.588;2022-11-15T09:24:35;14.10;;;9.20;;
76259;SDS011;65076;52.362;6.588;2022-11-15T09:27:05;18.45;;;10.57;;
76259;SDS011;65076;52.362;6.588;2022-11-15T09:29:32;14.48;;;8.98;;
76259;SDS011;65076;52.362;6.588;2022-11-15T09:32:00;12.50;;;8.88;;
76259;SDS011;65076;52.362;6.588;2022-11-15T09:34:28;11.68;;;7.35;;
76259;SDS011;65076;52.362;6.588;2022-11-15T09:36:56;12.85;;;7.20;;
76259;SDS011;65076;52.362;6.588;2022-11-15T09:39:24;11.10;;;7.13;;
76259;SDS011;65076;52.362;6.588;2022-11-15T09:41:56;10.57;;;6.47;;
76259;SDS011;65076;52.362;6.588;2022-11-15T09:44:44;9.32;;;6.45;;
76259;SDS011;65076;52.362;6.588;2022-11-15T09:47:43;9.93;;;6.28;;
76259;SDS011;65076;52.362;6.588;2022-11-15T09:50:50;9.80;;;5.63;;
76259;SDS011;65076;52.362;6.588;2022-11-15T09:53:21;10.00;;;5.65;;
76259;SDS011;65076;52.362;6.588;2022-11-15T09:56:14;8.43;;;5.22;;
76259;SDS011;65076;52.362;6.588;2022-11-15T09:58:50;8.25;;;5.10;;
76259;SDS011;65076;52.362;6.588;2022-11-15T10:01:36;8.93;;;5.28;;
76259;SDS011;65076;52.362;6.588;2022-11-15T10:04:15;4.82;;;3.83;;
76259;SDS011;65076;52.362;6.588;2022-11-15T10:06:46;7.75;;;4.63;;
76259;SDS011;65076;52.362;6.588;2022-11-15T10:09:26;8.43;;;4.45;;
76259;SDS011;65076;52.362;6.588;2022-11-15T10:12:03;6.93;;;4.05;;
76259;SDS011;65076;52.362;6.588;2022-11-15T10:14:32;4.78;;;3.25;;
76259;SDS011;65076;52.362;6.588;2022-11-15T10:20:20;5.40;;;3.70;;
76259;SDS011;65076;52.362;6.588;2022-11-15T10:22:51;5.43;;;3.55;;
76259;SDS011;65076;52.362;6.588;2022-11-15T10:25:23;5.47;;;3.30;;
76259;SDS011;65076;52.362;6.588;2022-11-15T10:27:54;4.22;;;2.47;;
76259;SDS011;65076;52.362;6.588;2022-11-15T10:30:32;4.95;;;3.08;;
76259;SDS011;65076;52.362;6.588;2022-11-15T10:33:22;6.60;;;2.78;;
76259;SDS011;65076;52.362;6.588;2022-11-15T10:36:16;3.75;;;2.35;;
76259;SDS011;65076;52.362;6.588;2022-11-15T10:38:52;6.40;;;2.75;;
76259;SDS011;65076;52.362;6.588;2022-11-15T10:41:29;5.20;;;2.67;;
76259;SDS011;65076;52.362;6.588;2022-11-15T10:44:09;3.83;;;2.20;;
76259;SDS011;65076;52.362;6.588;2022-11-15T10:46:48;3.58;;;2.08;;
76259;SDS011;65076;52.362;6.588;2022-11-15T10:49:52;3.72;;;2.17;;
76259;SDS011;65076;52.362;6.588;2022-11-15T10:52:23;4.47;;;2.30;;
76259;SDS011;65076;52.362;6.588;2022-11-15T10:54:53;4.65;;;2.17;;
76259;SDS011;65076;52.362;6.588;2022-11-15T10:57:26;4.30;;;2.38;;
76259;SDS011;65076;52.362;6.588;2022-11-15T10:59:58;3.90;;;2.95;;
76259;SDS011;65076;52.362;6.588;2022-11-15T11:02:32;3.78;;;2.05;;
76259;SDS011;65076;52.362;6.588;2022-11-15T11:05:04;2.42;;;1.90;;
76259;SDS011;65076;52.362;6.588;2022-11-15T11:07:54;2.75;;;2.03;;
76259;SDS011;65076;52.362;6.588;2022-11-15T11:10:24;2.78;;;2.10;;
76259;SDS011;65076;52.362;6.588;2022-11-15T11:13:13;3.85;;;2.10;;
76259;SDS011;65076;52.362;6.588;2022-11-15T11:18:25;3.15;;;1.52;;
76259;SDS011;65076;52.362;6.588;2022-11-15T11:21:02;3.17;;;1.88;;
76259;SDS011;65076;52.362;6.588;2022-11-15T11:23:43;3.33;;;1.90;;
76259;SDS011;65076;52.362;6.588;2022-11-15T11:26:26;3.92;;;1.77;;
76259;SDS011;65076;52.362;6.588;2022-11-15T11:29:12;3.15;;;1.70;;
76259;SDS011;65076;52.362;6.588;2022-11-15T11:31:57;2.60;;;1.50;;
76259;SDS011;65076;52.362;6.588;2022-11-15T11:34:40;4.60;;;1.45;;
76259;SDS011;65076;52.362;6.588;2022-11-15T11:37:24;3.25;;;1.70;;
76259;SDS011;65076;52.362;6.588;2022-11-15T11:40:08;4.28;;;1.40;;
76259;SDS011;65076;52.362;6.588;2022-11-15T11:42:51;2.30;;;1.60;;
76259;SDS011;65076;52.362;6.588;2022-11-15T11:45:36;2.35;;;1.30;;
76259;SDS011;65076;52.362;6.588;2022-11-15T11:48:23;2.92;;;1.40;;
76259;SDS011;65076;52.362;6.588;2022-11-15T11:51:11;1.63;;;1.38;;
76259;SDS011;65076;52.362;6.588;2022-11-15T11:53:49;3.92;;;1.73;;
76259;SDS011;65076;52.362;6.588;2022-11-15T11:56:26;1.83;;;1.00;;
76259;SDS011;65076;52.362;6.588;2022-11-15T11:58:57;1.40;;;0.73;;
76259;SDS011;65076;52.362;6.588;2022-11-15T12:01:36;1.40;;;1.00;;
76259;SDS011;65076;52.362;6.588;2022-11-15T12:04:11;3.28;;;1.00;;
76259;SDS011;65076;52.362;6.588;2022-11-15T12:06:49;2.35;;;0.93;;
76259;SDS011;65076;52.362;6.588;2022-11-15T12:09:26;1.67;;;0.90;;
76259;SDS011;65076;52.362;6.588;2022-11-15T12:12:02;2.15;;;0.80;;
76259;SDS011;65076;52.362;6.588;2022-11-15T12:14:40;3.15;;;0.75;;
76259;SDS011;65076;52.362;6.588;2022-11-15T12:17:16;3.42;;;0.82;;
76259;SDS011;65076;52.362;6.588;2022-11-15T12:19:50;2.70;;;0.80;;
76259;SDS011;65076;52.362;6.588;2022-11-15T12:22:27;3.58;;;0.70;;
76259;SDS011;65076;52.362;6.588;2022-11-15T12:25:07;2.25;;;0.75;;
76259;SDS011;65076;52.362;6.588;2022-11-15T12:27:47;1.98;;;0.70;;
76259;SDS011;65076;52.362;6.588;2022-11-15T12:30:21;1.63;;;0.52;;
76259;SDS011;65076;52.362;6.588;2022-11-15T12:32:54;2.45;;;0.60;;
76259;SDS011;65076;52.362;6.588;2022-11-15T12:35:27;0.80;;;0.70;;
76259;SDS011;65076;52.362;6.588;2022-11-15T12:38:08;1.05;;;0.70;;
76259;SDS011;65076;52.362;6.588;2022-11-15T12:40:39;2.05;;;0.50;;
76259;SDS011;65076;52.362;6.588;2022-11-15T12:43:44;1.83;;;0.80;;
76259;SDS011;65076;52.362;6.588;2022-11-15T12:46:19;1.63;;;0.73;;
76259;SDS011;65076;52.362;6.588;2022-11-15T12:49:10;1.42;;;0.98;;
76259;SDS011;65076;52.362;6.588;2022-11-15T12:52:13;1.48;;;0.82;;
76259;SDS011;65076;52.362;6.588;2022-11-15T12:57:51;2.78;;;0.90;;
76259;SDS011;65076;52.362;6.588;2022-11-15T13:03:27;3.13;;;1.10;;
76259;SDS011;65076;52.362;6.588;2022-11-15T13:15:35;3.38;;;1.50;;
76259;SDS011;65076;52.362;6.588;2022-11-15T13:18:29;1.65;;;1.20;;
76259;SDS011;65076;52.362;6.588;2022-11-15T13:21:21;4.95;;;1.35;;
76259;SDS011;65076;52.362;6.588;2022-11-15T13:24:12;2.25;;;1.48;;
76259;SDS011;65076;52.362;6.588;2022-11-15T13:26:42;1.88;;;1.33;;
76259;SDS011;65076;52.362;6.588;2022-11-15T13:29:18;4.25;;;1.42;;
76259;SDS011;65076;52.362;6.588;2022-11-15T13:31:47;1.65;;;1.33;;
76259;SDS011;65076;52.362;6.588;2022-11-15T13:34:26;3.35;;;1.63;;
76259;SDS011;65076;52.362;6.588;2022-11-15T13:37:29;3.72;;;1.75;;
76259;SDS011;65076;52.362;6.588;2022-11-15T13:42:53;4.25;;;2.30;;
76259;SDS011;65076;52.362;6.588;2022-11-15T13:45:24;4.38;;;2.30;;
76259;SDS011;65076;52.362;6.588;2022-11-15T13:47:54;3.35;;;2.50;;
76259;SDS011;65076;52.362;6.588;2022-11-15T13:50:24;2.60;;;2.20;;
76259;SDS011;65076;52.362;6.588;2022-11-15T13:52:56;3.05;;;2.25;;
76259;SDS011;65076;52.362;6.588;2022-11-15T13:55:29;4.85;;;2.85;;
76259;SDS011;65076;52.362;6.588;2022-11-15T13:58:00;3.17;;;2.22;;
76259;SDS011;65076;52.362;6.588;2022-11-15T14:00:37;5.47;;;2.35;;
76259;SDS011;65076;52.362;6.588;2022-11-15T14:03:12;2.28;;;1.80;;
76259;SDS011;65076;52.362;6.588;2022-11-15T14:05:59;3.63;;;2.47;;
76259;SDS011;65076;52.362;6.588;2022-11-15T14:08:33;3.47;;;1.90;;
76259;SDS011;65076;52.362;6.588;2022-11-15T14:11:06;2.92;;;2.10;;
76259;SDS011;65076;52.362;6.588;2022-11-15T14:13:39;2.35;;;1.90;;
76259;SDS011;65076;52.362;6.588;2022-11-15T14:16:16;4.93;;;3.00;;
76259;SDS011;65076;52.362;6.588;2022-11-15T14:18:47;3.05;;;1.90;;
76259;SDS011;65076;52.362;6.588;2022-11-15T14:21:18;3.70;;;2.00;;
76259;SDS011;65076;52.362;6.588;2022-11-15T14:23:46;3.22;;;1.42;;
76259;SDS011;65076;52.362;6.588;2022-11-15T14:26:26;3.05;;;1.35;;
76259;SDS011;65076;52.362;6.588;2022-11-15T14:28:56;5.30;;;3.15;;
76259;SDS011;65076;52.362;6.588;2022-11-15T14:31:26;3.38;;;1.50;;
76259;SDS011;65076;52.362;6.588;2022-11-15T14:33:54;4.95;;;2.97;;
76259;SDS011;65076;52.362;6.588;2022-11-15T14:36:21;4.25;;;2.58;;
76259;SDS011;65076;52.362;6.588;2022-11-15T14:38:49;3.08;;;1.58;;
76259;SDS011;65076;52.362;6.588;2022-11-15T14:41:19;4.05;;;1.70;;
76259;SDS011;65076;52.362;6.588;2022-11-15T14:43:51;2.17;;;1.25;;
76259;SDS011;65076;52.362;6.588;2022-11-15T14:46:20;4.13;;;1.17;;
76259;SDS011;65076;52.362;6.588;2022-11-15T14:48:49;3.38;;;2.03;;
76259;SDS011;65076;52.362;6.588;2022-11-15T14:51:17;2.58;;;1.55;;
76259;SDS011;65076;52.362;6.588;2022-11-15T14:53:46;3.65;;;0.95;;
76259;SDS011;65076;52.362;6.588;2022-11-15T14:56:16;3.60;;;1.20;;
76259;SDS011;65076;52.362;6.588;2022-11-15T14:58:43;3.97;;;1.38;;
76259;SDS011;65076;52.362;6.588;2022-11-15T15:01:12;5.55;;;1.00;;
76259;SDS011;65076;52.362;6.588;2022-11-15T15:03:45;2.20;;;1.17;;
76259;SDS011;65076;52.362;6.588;2022-11-15T15:06:15;2.25;;;1.00;;
76259;SDS011;65076;52.362;6.588;2022-11-15T15:08:44;2.63;;;1.08;;
76259;SDS011;65076;52.362;6.588;2022-11-15T15:11:13;2.17;;;1.40;;
76259;SDS011;65076;52.362;6.588;2022-11-15T15:13:51;2.90;;;1.20;;
76259;SDS011;65076;52.362;6.588;2022-11-15T15:16:23;1.33;;;0.90;;
76259;SDS011;65076;52.362;6.588;2022-11-15T15:18:51;3.08;;;1.00;;
76259;SDS011;65076;52.362;6.588;2022-11-15T15:21:22;7.53;;;3.67;;
76259;SDS011;65076;52.362;6.588;2022-11-15T15:24:01;5.38;;;2.20;;
76259;SDS011;65076;52.362;6.588;2022-11-15T15:26:30;2.45;;;0.70;;
76259;SDS011;65076;52.362;6.588;2022-11-15T15:28:59;2.50;;;0.77;;
76259;SDS011;65076;52.362;6.588;2022-11-15T15:31:28;2.05;;;0.70;;
76259;SDS011;65076;52.362;6.588;2022-11-15T15:33:55;1.42;;;0.57;;
76259;SDS011;65076;52.362;6.588;2022-11-15T15:36:24;2.08;;;0.68;;
76259;SDS011;65076;52.362;6.588;2022-11-15T15:38:52;1.42;;;0.80;;
76259;SDS011;65076;52.362;6.588;2022-11-15T15:41:20;1.65;;;0.88;;
76259;SDS011;65076;52.362;6.588;2022-11-15T15:43:48;1.85;;;0.77;;
76259;SDS011;65076;52.362;6.588;2022-11-15T15:46:17;1.67;;;0.77;;
76259;SDS011;65076;52.362;6.588;2022-11-15T15:48:47;4.13;;;0.80;;
76259;SDS011;65076;52.362;6.588;2022-11-15T15:51:16;2.97;;;0.77;;